x

9063085 - Toledo, Oh (thro1) Weather Station

9:30am - Mon 16th Jan 2017 All times are CST. -6 hours from GMT.

  • Wind
    3mph, 5mph gusts
  • Air Temp 32°f
  • Sea Pressure 1026.5mb
  • 9063085 - Toledo, Oh
  • 9063085 - Toledo, Oh

More Historic Weather Station data

Upgrade to MSW Pro to gain access to the past 30 days of data for over 8000 Wavebouys and Weather Stations around the globe.

Join Pro

Comparision Forecast

View Surf forecast
   
Mon 01/16 9:30am 3 5 mph 1026.5mb 32f
9:24am 2 5 mph 1026.5mb 32f
9:18am 1 5 mph 1026.6mb 32f
9:12am 3 5 mph 1026.5mb 32f
9:06am 2 3 mph 1026.6mb 32f
9:00am  -  2 mph 1026.7mb 32f
8:54am  -  2 mph 1026.7mb 32f
8:48am  -  3 mph 1026.6mb 32f
8:42am  -  1 mph 1026.6mb 32f
8:36am  -  mph 1026.6mb 31f
8:30am  -  mph 1026.6mb 31f
8:24am 1 2 mph 1026.4mb 31f
8:18am  -  2 mph 1026.3mb 31f
8:12am 1 3 mph 1026.2mb 31f
8:06am 3 5 mph 1026.3mb 31f
8:00am 3 5 mph 1026.3mb 30f
7:54am 3 5 mph 1026.3mb 30f
7:48am 2 3 mph 1026.5mb 30f
7:42am  -  3 mph 1026.6mb 30f
7:36am 3 5 mph 1026.6mb 30f
7:30am 1 5 mph 1026.6mb 30f
7:24am 5
mph
1026.7mb 30f
7:18am 3
mph
1026.7mb 30f
7:12am 1 3 mph 1026.8mb 30f
7:06am 2 3 mph 1026.7mb 30f
7:00am 2 3 mph 1026.6mb 30f
6:48am 5 6 mph 1026.6mb 30f
6:42am 3
mph
1026.5mb 30f
6:36am 3
mph
1026.5mb 30f
6:30am 2
mph
1026.4mb 29f
6:24am 2 6 mph 1026.3mb 30f
6:18am 3 5 mph 1026.3mb 30f
6:12am 2 3 mph 1026.4mb 30f
6:06am 2 3 mph 1026.5mb 30f
6:00am 2 3 mph 1026.4mb 30f
5:54am 1 2 mph 1026.4mb 29f
5:48am  -  1 mph 1026.6mb 28f
5:42am  -  1 mph 1026.6mb 28f
5:36am  -  1 mph 1026.6mb 28f
5:30am  -  mph 1026.5mb 28f
5:24am  -  1 mph 1026.5mb 29f
5:18am  -  mph 1026.6mb 29f
5:12am  -  1 mph 1026.5mb 29f
5:06am 1 2 mph 1026.4mb 29f
5:00am 2 3 mph 1026.4mb 28f
4:54am 2 5 mph 1026.6mb 29f
4:48am 2 5 mph 1026.7mb 28f
4:42am 1 2 mph 1026.6mb 28f
4:36am  -  2 mph 1026.7mb 28f
4:30am 1 3 mph 1026.6mb 28f
4:24am 3
mph
1026.5mb 28f
4:18am 3 5 mph 1026.4mb 28f
4:12am 3 5 mph 1026.5mb 28f
4:06am 2 3 mph 1026.6mb 27f
4:00am 3 5 mph 1026.6mb 27f
3:54am 2 3 mph 1026.6mb 27f
3:48am 1 2 mph 1026.6mb 26f
3:42am 1 2 mph 1026.7mb 26f
3:36am  -  1 mph 1026.8mb 26f
3:30am 1 2 mph 1026.9mb 27f
3:24am 1 2 mph 1026.9mb 27f
3:18am 1 2 mph 1026.9mb 27f
3:12am 2
mph
1027mb 27f
3:06am 1 2 mph 1026.9mb 28f
3:00am 2
mph
1026.8mb 28f
2:54am 2 3 mph 1026.9mb 28f
2:48am 2
mph
1026.8mb 27f
2:42am 2 3 mph 1027mb 27f
2:36am 2 3 mph 1027mb 27f
2:30am 2 3 mph 1027.1mb 27f
2:24am 2
mph
1027.2mb 27f
2:18am 2 3 mph 1027.3mb 27f
2:12am 1 2 mph 1027.3mb 26f
2:06am 1 2 mph 1027.4mb 26f
2:00am 1 2 mph 1027.6mb 26f
1:54am 1
mph
1027.5mb 26f
1:48am  -  1 mph 1027.5mb 26f
1:42am  -  1 mph 1027.4mb 26f
1:36am  -  1 mph 1027.4mb 27f
1:30am  -  1 mph 1027.3mb 26f
1:24am  -  mph 1027.4mb 26f
1:18am  -  1 mph 1027.3mb 26f
1:12am  -  1 mph 1027.2mb 26f
1:06am 1 2 mph 1027.1mb 26f
1:00am 2 3 mph 1027.1mb 26f
12:54am 2
mph
1027mb 26f
12:48am  -  1 mph 1026.9mb -
12:42am  -  1 mph 1026.9mb -
12:36am  -  2 mph 1026.9mb -
12:30am 1 2 mph 1026.8mb 26f
12:24am 2 3 mph 1026.7mb 26f
12:12am 2
mph
1026.8mb 26f
12:06am 2 3 mph 1026.8mb 26f
12:00am 2 3 mph 1026.9mb 27f
Sun 01/15 11:54pm 3 5 mph 1027mb 27f
11:48pm 2 3 mph 1027.1mb 27f
11:42pm 3 5 mph 1027.1mb 27f
11:36pm 2
mph
1027.2mb 27f
11:30pm 2 3 mph 1027.2mb 28f
11:24pm 1
mph
1027.2mb 28f
11:18pm 1 3 mph 1027.3mb 27f
11:12pm  -  2 mph 1027.2mb 27f
11:06pm  -  mph 1027.3mb 27f
11:00pm  -  1 mph 1027.3mb 27f
10:54pm 1 2 mph 1027.2mb 27f
10:48pm 1 2 mph 1027.2mb 27f
10:42pm 2
mph
1027.4mb 28f
10:36pm 2
mph
1027.4mb 27f
10:30pm 2
mph
1027.3mb 27f
10:24pm 1 2 mph 1027.3mb 27f
10:18pm 2
mph
1027.4mb 28f
10:12pm 1 2 mph 1027.4mb 28f
10:00pm 3
mph
1027.5mb 28f
9:54pm 2 3 mph 1027.6mb 28f
9:48pm 2
mph
1027.6mb 29f
9:42pm 1 2 mph 1027.6mb 29f
9:36pm 1 2 mph 1027.6mb 29f
9:30pm 1 2 mph 1027.8mb 29f
9:24pm 2 3 mph 1027.8mb 28f
9:18pm 3
mph
1027.8mb 28f
9:12pm 2
mph
1027.9mb 28f
9:06pm  -  1 mph 1027.9mb 28f
9:00pm  -  1 mph 1028mb 28f
8:54pm  -  1 mph 1027.9mb 29f
8:48pm  -  mph 1027.8mb 29f
8:42pm  -  1 mph 1027.9mb 28f
8:36pm  -  2 mph 1027.8mb 28f
8:30pm 2
mph
1027.8mb 28f
8:24pm 2
mph
1027.8mb 28f
8:18pm 1
mph
1027.7mb 28f
8:12pm  -  1 mph 1027.8mb 28f
8:06pm  -  1 mph 1028mb 29f
8:00pm  -  mph 1028.1mb 29f
7:54pm  -  mph 1027.8mb 28f
7:48pm  -  2 mph 1027.9mb 29f
7:42pm 1 3 mph 1027.7mb 29f
7:36pm 1 2 mph 1027.7mb 29f
7:30pm 2
mph
1027.9mb 29f
7:24pm  -  1 mph 1027.9mb 29f
7:18pm  -  2 mph 1027.9mb 29f
7:12pm 2
mph
1028.1mb 28f
7:06pm  -  1 mph 1028.2mb 28f
7:00pm  -  2 mph 1028.2mb 28f
6:54pm 2
mph
1028.1mb 28f
6:48pm 1 2 mph 1028mb 29f
6:42pm 2 3 mph 1028mb 29f
6:36pm 2
mph
1027.9mb 29f
6:30pm 2 3 mph 1027.9mb 28f
6:24pm 2
mph
1028mb 28f
6:18pm 1 2 mph 1027.9mb 29f
6:12pm 2
mph
1027.9mb 29f
6:06pm 1 2 mph 1027.8mb 29f
6:00pm 1
mph
1027.8mb 29f
5:54pm  -  3 mph 1027.9mb 29f
5:48pm 2 5 mph 1027.8mb 29f
5:42pm 3 5 mph 1027.8mb 29f
5:36pm 3 6 mph 1027.8mb 29f
5:30pm 3
mph
1027.8mb 29f
5:24pm 2
mph
1027.9mb 30f
5:18pm 2 3 mph 1027.8mb 30f
5:12pm 2 3 mph 1027.8mb 30f
5:06pm 2 5 mph 1027.8mb 30f
5:00pm 5 6 mph 1027.9mb 30f
4:54pm 5 6 mph 1027.9mb 30f
4:48pm 5 6 mph 1027.9mb 31f
4:42pm 5 6 mph 1027.9mb 31f
4:36pm 3 6 mph 1027.8mb 31f
4:30pm 5 6 mph 1027.8mb 31f
4:24pm 5 6 mph 1027.8mb 31f
4:18pm 5 7 mph 1027.8mb 31f
4:12pm 6 7 mph 1027.9mb 31f
4:06pm 6 7 mph 1027.8mb 31f
4:00pm 5 7 mph 1027.9mb 31f
3:54pm 5 6 mph 1027.7mb 32f
3:48pm 6 7 mph 1027.6mb 32f
3:42pm 5 6 mph 1027.6mb 32f
3:36pm 5 7 mph 1027.7mb 32f
3:30pm 6 7 mph 1027.8mb 32f
3:24pm 6 7 mph 1027.9mb 32f
3:18pm 6 7 mph 1027.9mb 32f
3:12pm 5 7 mph 1027.9mb 32f
3:06pm 5 7 mph 1027.8mb 32f
3:00pm 5 6 mph 1027.8mb 32f
2:54pm 6
mph
1027.9mb 32f
2:48pm 3 6 mph 1028mb 33f
2:42pm 5 6 mph 1027.9mb 33f
2:36pm 3 6 mph 1027.9mb 32f
2:30pm 6
mph
1027.9mb 32f
2:24pm 5 7 mph 1027.9mb 32f
2:18pm 5 6 mph 1028mb 32f
2:12pm 3 5 mph 1028mb 32f
2:06pm 3 5 mph 1028.1mb 33f
2:00pm 2 5 mph 1028.1mb 32f
1:54pm 3 6 mph 1028.2mb 32f
1:48pm 2 5 mph 1028.2mb 32f
1:42pm 2 3 mph 1028mb 32f
1:36pm 3 5 mph 1028mb 32f
1:30pm 2 3 mph 1028.1mb 32f
1:24pm 3 6 mph 1028.1mb 32f
1:18pm 3 5 mph - -
1:12pm 3 5 mph 1028.2mb 32f
1:06pm 3
mph
1028.3mb 32f
1:00pm 2 3 mph 1028.4mb 32f
12:54pm 1 3 mph 1028.4mb 31f
12:48pm  -  1 mph 1028.4mb 32f
12:42pm  -  2 mph 1028.4mb 32f
12:36pm 2 5 mph 1028.5mb 33f
12:30pm 1 3 mph - -
12:24pm 2 5 mph 1028.8mb 32f
12:18pm 2 3 mph 1028.7mb 32f
12:12pm  -  3 mph 1028.7mb 31f
12:06pm 1 3 mph 1028.6mb 31f
12:00pm 1 2 mph 1028.7mb 31f
11:54am 2 3 mph 1029mb 31f
11:48am 3 5 mph 1029mb 31f
11:42am 2 5 mph 1029.1mb 31f
11:36am 2 3 mph 1029.2mb 30f
11:30am 1 2 mph 1029.3mb 30f
11:24am 1 5 mph 1029.5mb 31f
11:18am 2 3 mph 1029.6mb 30f
11:12am  -  2 mph 1029.7mb 31f
11:06am 1 2 mph 1029.7mb 30f
11:00am  -  2 mph 1029.9mb 30f
10:54am 1 2 mph 1030mb 30f
10:48am  -  2 mph 1030.1mb 30f
10:42am  -  2 mph 1030.1mb 30f
10:36am  -  2 mph 1030.1mb 29f
10:30am  -  mph 1030.2mb 30f
10:24am  -  mph 1030.2mb 29f
10:18am  -  1 mph 1030.3mb 30f
10:12am  -  1 mph 1030.5mb 30f
10:06am  -  1 mph 1030.7mb 29f
10:00am  -  1 mph 1030.6mb 29f
9:54am 1 2 mph 1030.5mb 29f
9:48am  -  2 mph 1030.5mb 28f
9:42am 1 2 mph 1030.5mb 28f
9:36am 1 2 mph 1030.6mb 29f
9:30am 2
mph
1030.6mb 28f
9:24am  -  3 mph 1030.7mb 28f
9:18am 1 3 mph 1030.6mb 28f
9:12am 2 3 mph 1030.5mb 27f
9:06am 1 2 mph 1030.5mb 27f
9:00am 1 2 mph 1030.5mb 28f
8:54am 1 2 mph 1030.5mb 26f
8:42am 1 2 mph 1030.6mb 25f
8:36am 1 3 mph 1030.5mb 25f
8:30am 3
mph
1030.6mb 24f
8:24am 3
mph
1030.5mb 24f
8:18am 2 3 mph 1030.4mb 24f
8:12am 3
mph
1030.5mb 24f
8:06am 3
mph
1030.5mb 24f
8:00am 2 3 mph 1030.5mb 23f
7:54am 2 3 mph 1030.4mb 23f
7:48am 2 3 mph 1030.5mb 23f
7:42am 3
mph
1030.4mb 22f
7:36am 2 3 mph 1030.4mb 22f
7:30am 3
mph
1030.5mb 22f
7:24am 2 3 mph 1030.4mb 22f
7:18am 2 3 mph 1030.4mb 22f
7:12am 2 3 mph 1030.4mb 22f
7:06am 2
mph
1030.3mb 22f
7:00am 2
mph
1030.3mb 22f
6:54am 1 3 mph 1030.4mb 21f
6:48am 3 5 mph 1030.3mb 21f
6:42am 5 6 mph 1030.4mb 20f
6:36am 5 6 mph 1030.4mb 21f
6:30am 3 5 mph 1030.3mb 21f
6:24am 3
mph
1030.3mb 22f
6:18am 3
mph
1030.2mb 22f
6:12am 3 5 mph 1030.2mb 22f
6:06am 5
mph
1030mb 22f
6:00am 3 5 mph 1030.1mb 22f
5:54am 3 5 mph 1030mb 22f
5:48am 5
mph
1030.1mb 21f
5:42am 3 5 mph 1030.1mb 21f
5:36am 5
mph
1030mb 22f
5:30am 5
mph
1029.9mb 22f
5:24am 3 5 mph 1029.8mb 21f
5:18am 5
mph
1029.8mb 22f
5:12am 3 5 mph 1029.8mb 21f
5:06am 3 5 mph 1029.7mb 22f
5:00am 3 5 mph 1029.7mb 22f
4:54am 3
mph
1029.8mb 22f
4:48am 3
mph
1029.7mb 22f
4:42am 3 5 mph 1029.7mb 22f
4:36am 3
mph
1029.7mb 22f
4:30am 3 5 mph 1029.7mb 22f
4:24am 5
mph
1029.8mb 22f
4:18am 5
mph
1029.8mb 22f
4:12am 3
mph
1029.8mb 22f
4:06am 3 5 mph 1029.9mb 22f
4:00am 3 5 mph 1029.8mb 22f
3:54am 3 5 mph 1029.8mb 22f
3:48am 3
mph
1029.8mb 23f
3:42am 2 3 mph 1029.8mb 23f
3:36am 3
mph
1029.8mb 23f
3:30am 2 3 mph 1029.9mb 23f
3:24am 3
mph
1030mb 22f
3:18am 3
mph
1030mb 23f
3:12am 3 5 mph 1030mb 23f
3:06am 3 5 mph 1029.9mb 24f
3:00am 3 5 mph 1029.9mb 23f
2:54am 3 5 mph 1030mb 23f
2:48am 5
mph
1030mb 23f
2:42am 3
mph
1030.1mb 23f
2:36am 2 3 mph 1030.1mb 23f
2:30am 2 3 mph 1030.1mb 24f
2:24am 2 3 mph 1030mb 24f
2:18am 2 3 mph 1030mb 24f
2:12am 2 3 mph 1030mb 24f
2:06am 2 5 mph 1029.9mb 25f
2:00am 5
mph
1029.9mb 24f
1:54am 5
mph
1029.9mb 25f
1:48am 3 5 mph 1029.8mb 25f
1:42am 3 5 mph 1029.7mb 24f
1:36am 3 5 mph 1029.7mb 24f
1:30am 5
mph
1029.7mb 24f
1:24am 3 5 mph 1029.5mb 24f
1:18am 3 5 mph 1029.5mb 24f
1:12am 3 5 mph 1029.5mb 25f
1:06am 3
mph
1029.5mb 25f
1:00am 3
mph
1029.4mb 25f
12:54am 3 5 mph 1029.3mb 25f
12:48am 3
mph
1029.3mb -
12:42am 2 3 mph 1029.3mb -
12:36am 2 5 mph 1029.4mb -
12:30am 3 5 mph 1029.2mb 25f
12:24am 5 6 mph 1029.2mb 26f
12:18am 6 8 mph 1029.2mb 26f
12:12am 6 7 mph 1029.3mb 26f
12:06am 5 6 mph 1029.3mb 26f
12:00am 5 6 mph 1029.3mb 26f
Sat 01/14 11:54pm 6
mph
1029.3mb 25f
11:48pm 5 6 mph 1029.3mb -
11:42pm 5 6 mph 1029.3mb -
11:36pm 3 5 mph 1029.3mb -
11:30pm 5
mph
1029.2mb 26f
11:24pm 3 5 mph 1029.2mb 26f
11:18pm 3 5 mph 1029.2mb 26f
11:12pm 5 6 mph 1029.4mb 26f
11:06pm 5 6 mph 1029.4mb 26f
11:00pm 5 6 mph 1029.5mb 26f
10:54pm 5 6 mph 1029.4mb 26f
10:48pm 6
mph
1029.4mb 26f
10:42pm 5 6 mph 1029.6mb 26f
10:36pm 5 6 mph 1029.4mb 26f
10:30pm 5 6 mph 1029.4mb 26f
10:24pm 5 6 mph 1029.5mb 26f
10:18pm 5 6 mph 1029.4mb 27f
10:12pm 5 6 mph 1029.6mb 27f
10:06pm 5 6 mph 1029.6mb 27f
10:00pm 5 6 mph 1029.6mb 27f
9:54pm 5 6 mph 1029.6mb 27f
9:48pm 5 6 mph 1029.6mb 27f
9:42pm 5 6 mph 1029.5mb 27f
9:36pm 5 6 mph 1029.4mb 27f
9:30pm 5 7 mph 1029.6mb 27f
9:24pm 6 7 mph 1029.6mb 27f
9:18pm 6
mph
1029.5mb 27f
9:12pm 5 6 mph 1029.5mb 27f
9:06pm 5 6 mph 1029.5mb 27f
9:00pm 5
mph
1029.5mb 27f
8:54pm 3 5 mph 1029.3mb 28f
8:48pm 5
mph
1029.4mb 28f
8:42pm 5 6 mph 1029.5mb 27f
8:36pm 5 6 mph 1029.6mb 28f
8:30pm 5
mph
1029.4mb 28f
8:24pm 5 6 mph 1029.5mb 28f
8:18pm 5
mph
1029.5mb 28f
8:12pm 3 6 mph 1029.4mb 28f
8:06pm 5 6 mph 1029.3mb 28f
8:00pm 3 5 mph 1029.3mb 28f
7:54pm 3 5 mph 1029.2mb 28f
7:48pm 3 5 mph 1029.2mb 28f
7:42pm 3 5 mph 1029.3mb 28f
7:36pm 3 5 mph 1029.2mb 28f
7:30pm 5 6 mph 1029.1mb 28f
7:24pm 5
mph
1029mb 29f
7:18pm 3
mph
1028.9mb 29f
7:12pm 3
mph
1028.8mb 29f
7:06pm 3
mph
1028.7mb 29f
7:00pm 3
mph
1028.6mb 29f
6:54pm 3
mph
1028.6mb 29f
6:48pm 3
mph
1028.7mb 29f
6:42pm 3
mph
1028.6mb 30f
6:36pm 3 5 mph 1028.6mb 30f
6:30pm 3 6 mph 1028.6mb 30f
6:24pm 3 5 mph 1028.6mb 30f
6:18pm 5
mph
1028.6mb 30f
6:12pm 3 5 mph 1028.6mb 30f
6:06pm 3 5 mph 1028.7mb 30f
6:00pm 5 6 mph 1028.7mb 31f
5:54pm 5
mph
1028.7mb 31f
5:48pm 3 6 mph 1028.8mb 31f
5:42pm 5 6 mph 1028.7mb 31f
5:36pm 5 6 mph 1028.7mb 31f
5:30pm 5 6 mph 1028.7mb 31f
5:24pm 5 7 mph 1028.7mb 31f
5:18pm 3 5 mph 1028.6mb 31f
5:12pm 2 3 mph 1028.7mb 31f
5:06pm 1 3 mph 1028.7mb 31f
5:00pm 2 3 mph 1028.6mb 31f
4:54pm  -  5 mph 1028.5mb 30f
4:48pm  -  1 mph 1028.5mb 30f
4:42pm  -  mph 1028.4mb 30f
4:36pm  -  2 mph 1028.4mb 30f
4:30pm  -  2 mph 1028.3mb 30f
4:24pm  -  2 mph 1028.3mb 30f
4:18pm  -  2 mph 1028.2mb 30f
4:12pm  -  2 mph 1028.3mb 30f
4:06pm  -  1 mph 1028.3mb 30f
4:00pm  -  2 mph 1028.3mb 30f
3:54pm  -  3 mph 1028.3mb 30f
3:48pm  -  3 mph 1028.3mb 30f
3:42pm 2 3 mph 1028.2mb 30f
3:36pm 2
mph
1028.2mb 30f
3:30pm  -  2 mph 1028.2mb 30f
3:24pm  -  2 mph 1028.2mb 30f
3:18pm 1 2 mph 1028.2mb 30f
3:12pm 2 5 mph 1028.1mb 30f
3:06pm 2 3 mph 1028mb 30f
3:00pm 2 6 mph 1028mb 30f
2:54pm 2 3 mph 1028.1mb 30f
2:48pm 1 2 mph 1028.2mb 30f
2:42pm 1 2 mph 1028.2mb 30f
2:36pm 1 3 mph 1028.2mb 30f
2:30pm 1 3 mph 1028.3mb 30f
2:24pm 2 5 mph 1028.2mb 30f
2:18pm 3 6 mph 1028.3mb 30f
2:12pm 2 3 mph 1028.3mb 30f
2:06pm 2 3 mph 1028.3mb 30f
2:00pm 3 5 mph 1028.3mb 30f
1:54pm 1 5 mph 1028.6mb 30f
1:48pm 2 5 mph 1028.7mb 30f
1:42pm 1 5 mph 1028.7mb 30f
1:36pm 3 6 mph 1028.6mb 30f
1:30pm 1 6 mph 1028.6mb 30f
1:24pm 3 5 mph 1028.4mb 30f
1:18pm 1 2 mph 1028.4mb 30f
1:12pm 1 6 mph 1028.5mb 30f
1:06pm 3 6 mph 1028.5mb 30f
1:00pm 2 6 mph 1028.5mb 30f
12:54pm 3 8 mph 1028.7mb 30f
12:48pm 6 8 mph 1028.8mb 30f
12:42pm 3 6 mph 1028.7mb 30f
12:36pm 3 7 mph 1028.7mb 30f
12:30pm 3 6 mph 1028.7mb 30f
12:24pm 3 5 mph 1028.8mb 30f
12:18pm 5 6 mph 1028.8mb 30f
12:12pm 2 6 mph 1028.9mb 30f
12:06pm 5 6 mph 1029.1mb 30f
12:00pm 2 3 mph 1029.2mb 30f
11:54am 1 3 mph 1029.3mb 30f
11:48am 2 5 mph 1029.5mb 30f
11:42am 2 6 mph 1029.8mb 30f
11:36am 3 7 mph 1029.9mb 30f
11:30am 2 5 mph 1029.9mb 30f
11:24am 3 5 mph 1030.3mb 30f
11:18am 5 6 mph 1030.3mb 30f
11:12am 3 6 mph 1030.4mb 30f
11:06am 3 6 mph 1030.3mb 30f
11:00am 2 5 mph 1030.4mb 30f
10:54am 3 5 mph 1030.5mb 30f
10:48am 2 5 mph 1030.7mb 30f
10:42am 2 6 mph 1030.9mb 30f
10:36am 5 6 mph 1030.9mb 30f
10:30am 3 7 mph 1031.2mb 30f
10:24am 5 7 mph 1031.2mb 30f
10:18am 5 7 mph 1031.2mb 30f
10:12am 3 6 mph 1031.4mb 30f
10:06am 3 7 mph 1031.5mb 30f
10:00am 5 7 mph 1031.5mb 30f
9:54am 3 8 mph 1031.6mb 30f
9:48am 6 7 mph 1031.7mb 30f
9:42am 6 7 mph 1031.8mb 29f
9:36am 5 7 mph 1031.8mb 29f
9:30am 5 7 mph 1031.9mb 29f
9:24am 3 8 mph 1032.1mb 29f
9:18am 5 7 mph 1032.2mb 29f
9:12am 5 8 mph 1032.2mb 29f
9:06am 7 9 mph 1032.1mb 29f
9:00am 7 9 mph 1032mb 29f
8:54am 6 10 mph 1032mb 29f
8:48am 9 10 mph 1032.3mb 29f
8:42am 9 11 mph 1032.3mb 30f
8:36am 9 11 mph 1032.2mb 29f
8:30am 8 11 mph 1032.2mb 29f
8:24am 9 11 mph 1032.3mb 29f
8:18am 9 11 mph 1032.4mb 29f
8:12am 8 11 mph 1032.4mb 29f
8:06am 9 13 mph 1032.4mb 29f
8:00am 9 13 mph 1032.2mb 29f
7:54am 10 13 mph 1032.3mb 29f
7:48am 10 13 mph 1032.2mb 29f
7:42am 9 13 mph 1032.2mb 29f
7:36am 10 13 mph 1032.2mb 29f
7:30am 9 11 mph 1032.4mb 29f
7:24am 8 11 mph 1032.6mb 28f
7:18am 6 11 mph 1032.6mb 28f
7:12am 5 9 mph 1032.6mb 28f
7:06am 5 10 mph 1032.8mb 28f
7:00am 8 10 mph 1032.7mb 28f
6:54am 9 11 mph 1032.6mb 28f
6:48am 8 11 mph 1032.7mb 28f
6:42am 10 13 mph 1032.7mb 28f
6:36am 9 13 mph 1032.7mb 28f
6:30am 9 13 mph 1032.8mb 28f
6:24am 10 13 mph 1032.9mb 27f
6:18am 10 13 mph 1033.1mb 27f
6:12am 8 13 mph 1033.2mb 27f
6:06am 9 10 mph 1033.2mb 27f
6:00am 9 11 mph 1033.1mb 27f
5:54am 9 11 mph 1033.1mb 27f
5:48am 10 13 mph 1033.2mb 28f
5:42am 10 14 mph 1033.2mb 27f
5:36am 11 14 mph 1033.3mb 27f
5:30am 11 14 mph 1033.4mb 27f
5:24am 9 11 mph 1033.4mb 27f
5:18am 10 13 mph 1033.6mb 27f
5:12am 11 13 mph 1033.6mb 27f
5:06am 10 14 mph 1033.6mb 27f
5:00am 11 14 mph 1033.7mb 27f
4:54am 11 14 mph 1033.9mb 27f
4:48am 6 11 mph 1034.1mb 27f
4:42am 10 14 mph 1034mb 27f
4:36am 10 14 mph 1033.9mb 27f
4:30am 11 14 mph 1034.1mb 27f
4:24am 10 15 mph 1034.2mb 27f
4:18am 10 14 mph 1034.4mb 27f
4:12am 13 14 mph 1034.5mb 27f
4:06am 11 15 mph 1034.6mb 27f
4:00am 11 15 mph 1034.7mb 27f
3:54am 13 15 mph 1034.6mb 27f
3:48am 13 15 mph 1034.7mb 27f
3:42am 9 13 mph 1034.9mb 27f
3:36am 9 13 mph 1035mb 27f
3:30am 8 11 mph 1035mb 27f
3:24am 8 13 mph 1035.2mb 27f
3:18am 7 11 mph 1035.3mb 27f
3:12am 7 10 mph 1035.4mb 27f
3:06am 7 10 mph 1035.7mb 27f
3:00am 7 14 mph 1035.7mb 27f
2:54am 11 13 mph 1035.8mb 27f
2:48am 7 13 mph 1035.9mb 27f
2:42am 10 11 mph 1036mb 26f
2:36am 6 10 mph 1036.1mb 27f
2:30am 8 11 mph 1036.3mb 27f
2:24am 9 11 mph 1036.3mb 27f
2:18am 10 13 mph 1036.3mb 27f
2:12am 9 14 mph 1036.3mb 27f
2:06am 10 11 mph 1036.5mb 27f
2:00am 11 13 mph 1036.5mb 27f
1:54am 9 13 mph 1036.5mb 26f
1:48am 9 14 mph 1036.5mb 27f
1:42am 9 14 mph 1036.5mb 26f
1:36am 9 15 mph 1036.5mb 27f
1:30am 10 14 mph 1036.6mb 26f
1:24am 7 14 mph 1036.7mb 26f
1:18am 13 16 mph 1036.6mb 26f
1:12am 13 16 mph 1036.5mb 26f
1:06am 10 16 mph 1036.5mb 27f
1:00am 15 18 mph 1036.5mb 26f
12:54am 15 18 mph 1036.6mb 26f
12:48am 13 17 mph 1036.6mb -
12:42am 15 17 mph 1036.7mb -
12:36am 13 15 mph 1036.8mb -
12:30am 13 15 mph 1036.9mb 26f
12:24am 11 16 mph 1036.8mb 26f
12:12am 14 16 mph 1036.8mb 26f
12:06am 14 17 mph 1037mb 26f
12:00am 10 14 mph 1037.2mb 26f
Fri 01/13 11:54pm 10 15 mph 1037.4mb 26f
11:48pm 11 16 mph 1037.5mb 26f
11:42pm 11 16 mph 1037.4mb 26f
11:36pm 14 15 mph 1037.5mb 26f
11:30pm 10 15 mph 1037.5mb 26f
11:24pm 11 15 mph 1037.6mb 26f
11:18pm 13 15 mph 1037.6mb 26f
11:12pm 14 16 mph 1037.7mb 26f
11:06pm 11 16 mph 1037.9mb 26f
11:00pm 11 16 mph 1038mb 26f
10:54pm 11 14 mph 1038mb 26f
10:48pm 13 16 mph 1038.1mb 26f
10:42pm 13 16 mph 1038.1mb 26f
10:36pm 11 17 mph 1038.1mb 26f
10:30pm 14 16 mph 1038mb 26f
10:24pm 11 15 mph 1038.3mb 26f
10:18pm 10 14 mph 1038.4mb 26f
10:12pm 14 17 mph 1038.3mb 26f
10:06pm 13 16 mph 1038.4mb 26f
10:00pm 11 14 mph 1038.4mb 26f
9:54pm 14 18 mph 1038.5mb 26f
9:48pm 13 16 mph 1038.6mb 26f
9:42pm 14 17 mph 1038.6mb 26f
9:36pm 11 16 mph 1038.7mb 26f
9:30pm 11 15 mph 1038.9mb 26f
9:24pm 13 16 mph 1039.1mb 26f
9:18pm 14 18 mph 1039.2mb 26f
9:12pm 11 16 mph 1039.3mb 26f
9:06pm 10 15 mph 1039.4mb 26f
9:00pm 11 16 mph 1039.6mb -
8:54pm 11 15 mph 1039.5mb -
8:48pm 10 14 mph 1039.7mb 26f
8:42pm 10 16 mph 1039.7mb 26f
8:36pm 13 14 mph 1039.8mb 26f
8:30pm 11 14 mph 1039.8mb 26f
8:24pm 10 14 mph 1039.8mb 26f
8:18pm 11 16 mph 1039.9mb 26f
8:12pm 10 15 mph 1040mb 25f
8:06pm 9 14 mph 1040mb 26f
8:00pm 13 15 mph 1039.9mb 25f
7:54pm 11 14 mph 1040mb 26f
7:48pm 11 15 mph 1040mb 26f
7:42pm 11 14 mph 1040mb 26f
7:36pm 11 15 mph 1040.1mb 25f
7:30pm 10 14 mph 1040.1mb 25f
7:24pm 11 15 mph 1040.1mb 25f
7:18pm 11 15 mph 1040.1mb 25f
7:12pm 13 16 mph 1040.2mb 25f
7:06pm 13 15 mph 1040.4mb 25f
7:00pm 10 13 mph 1040.3mb 25f
6:54pm 10 14 mph 1040.2mb 26f
6:48pm 11 15 mph 1040.1mb 26f
6:42pm 13 15 mph 1040.2mb 25f
6:36pm 11 15 mph 1040.2mb 26f
6:30pm 9 13 mph 1040.2mb 26f
6:24pm 10 13 mph 1040.2mb 26f
6:18pm 8 14 mph 1040.2mb 26f
6:12pm 10 14 mph 1040.1mb 26f
6:06pm 10 13 mph 1040.2mb 26f
6:00pm 11 14 mph 1040.1mb 26f
5:54pm 10 13 mph 1040.3mb 26f
5:48pm 10 11 mph 1040.3mb 26f
5:42pm 9 13 mph 1040.3mb 26f
5:36pm 11 14 mph 1040.3mb 26f
5:30pm 10 13 mph 1040.2mb 26f
5:24pm 9 11 mph 1040.3mb 26f
5:18pm 11 14 mph 1040.1mb 26f
5:12pm 11 14 mph 1040.1mb 26f
5:06pm 10 13 mph 1040.2mb 26f
5:00pm 10 13 mph 1040.2mb 26f
4:54pm 9 11 mph 1040.3mb 26f
4:48pm 10 13 mph 1040.2mb 26f
4:42pm 9 11 mph 1040.3mb 26f
4:36pm 10 11 mph 1040.3mb 26f
4:30pm 9 11 mph 1040.3mb 26f
4:24pm 9 11 mph 1040.3mb 26f
4:18pm 8 11 mph 1040.4mb 26f
4:12pm 8 13 mph 1040.5mb 26f
4:06pm 8 10 mph 1040.5mb 26f
4:00pm 9 10 mph 1040.5mb 26f
3:54pm 9 11 mph 1040.5mb 26f
3:48pm 9 10 mph 1040.5mb 26f
3:42pm 7 9 mph 1040.5mb 26f
3:36pm 7 9 mph 1040.4mb 26f
3:30pm 7 10 mph 1040.3mb 26f
3:24pm 5 8 mph 1040.3mb 26f
3:18pm 7 10 mph 1040.2mb 26f
3:12pm 5 8 mph 1040.2mb 26f
3:06pm 7 8 mph 1040.1mb 26f
3:00pm 6 9 mph 1039.9mb 26f
2:54pm 3 6 mph 1040.1mb 26f
2:48pm 2 6 mph 1040.1mb 26f
2:42pm 3 7 mph 1040.2mb 26f
2:36pm 3 8 mph 1040.2mb 27f
2:30pm 6 8 mph 1040.1mb 26f
2:24pm 3 7 mph 1040mb 26f
2:18pm 3 6 mph 1039.8mb 26f
2:12pm 3 6 mph 1039.8mb 26f
2:06pm 2 6 mph 1039.7mb 26f
2:00pm 3 6 mph 1039.6mb 26f
1:54pm 2 8 mph 1039.9mb 27f
1:48pm 6 7 mph 1040mb 26f
1:42pm 2 8 mph 1039.9mb 26f
1:36pm 7 9 mph 1039.7mb 26f
1:30pm 5 8 mph 1039.8mb 26f
1:24pm 5 7 mph 1039.9mb 26f
1:18pm 5 6 mph 1040mb 26f
1:12pm 5 7 mph 1040mb 26f
1:06pm 3 9 mph 1040mb 26f
1:00pm 5 8 mph 1039.9mb 26f
12:54pm 3 7 mph 1039.7mb 26f
12:48pm 2 8 mph 1039.7mb 26f
12:42pm 5 9 mph 1039.6mb 26f
12:36pm 6 8 mph 1039.5mb 26f
12:30pm 3 8 mph 1039.6mb 26f
12:24pm 3 9 mph 1039.4mb 25f
12:18pm 5 11 mph 1039.4mb 26f
12:12pm 5 9 mph 1039.4mb 26f
12:06pm 3 10 mph 1039.4mb 25f
12:00pm 6 9 mph 1039.4mb 25f
11:54am 5 7 mph 1039.3mb 25f
11:48am 3 9 mph 1039.5mb 25f
11:42am 2 8 mph 1039.6mb 25f
11:36am 3 7 mph 1039.7mb 25f
11:30am 5 9 mph 1039.8mb 25f
11:24am 5 10 mph 1040mb 25f
11:18am 5 7 mph 1040mb 25f
11:12am 5 8 mph 1040.1mb 24f
11:06am 3 9 mph 1040.2mb 25f
11:00am 3 6 mph 1040.3mb 25f
10:54am 2 8 mph 1040.4mb 25f
10:48am 6 9 mph 1040.5mb 25f
10:42am 3 9 mph 1040.5mb 25f
10:36am 2 8 mph 1040.5mb 25f
10:30am 6 7 mph 1040.5mb 25f
10:24am 3 7 mph 1040.6mb 24f
10:18am 3 7 mph 1040.6mb 25f
10:12am 3 8 mph 1040.4mb 24f
10:06am 2 9 mph 1040.4mb 24f
10:00am 3 7 mph 1040.4mb 24f
9:54am 5 10 mph 1040.4mb 24f
9:48am 1 8 mph 1040.4mb 24f
9:42am 6 9 mph 1040.3mb 24f
9:36am 2 10 mph 1040.3mb 24f
9:30am 2 9 mph 1040.3mb 24f
9:24am 5 9 mph 1040.1mb 24f
9:18am 5 11 mph 1040.1mb 24f
9:12am 5 10 mph 1040.1mb 23f
9:06am 6 8 mph 1040.2mb 23f
9:00am 5 10 mph 1040.2mb 24f
8:54am 5 11 mph 1040.1mb 24f
8:48am 6 9 mph 1039.9mb 23f
8:42am 3 10 mph 1039.7mb 24f
8:36am 3 7 mph 1039.6mb 24f
8:30am 6 11 mph 1039.7mb 23f
8:24am 6 11 mph 1039.6mb 23f
8:18am 3 10 mph 1039.5mb 23f
8:12am 7 10 mph 1039.2mb 23f
8:06am 7 14 mph 1039mb 23f
8:00am 8 11 mph 1038.8mb 23f
7:54am 6 10 mph 1038.8mb 23f
7:48am 6 10 mph 1038.7mb 23f
7:42am 3 10 mph 1038.4mb 23f
7:36am 7 11 mph 1038.2mb 23f
7:30am 7 11 mph 1038.2mb 23f
7:24am 7 10 mph 1038.3mb 23f
7:18am 6 11 mph 1038.3mb 23f
7:12am 3 8 mph 1038.1mb 23f
7:06am 6 9 mph 1038.1mb 23f
7:00am 7 9 mph 1037.8mb 23f
6:54am 6 9 mph 1037.7mb 23f
6:48am 2 7 mph 1037.6mb 23f
6:42am 3 9 mph 1037.7mb 24f
6:36am 5 8 mph 1037.6mb 24f
6:30am 8 10 mph 1037.4mb 24f
6:24am 8 11 mph 1037.3mb 24f
6:18am 5 11 mph 1037.1mb 24f
6:12am 6 10 mph 1037mb 24f
6:06am 6 14 mph 1036.9mb 24f
6:00am 7 11 mph 1036.8mb 24f
5:54am 7 11 mph 1036.7mb 24f
5:48am 6 9 mph 1036.5mb 24f
5:42am 7 9 mph 1036.3mb 24f
5:36am 7 11 mph 1036.2mb 24f
5:30am 8 11 mph 1036mb 24f
5:24am 6 9 mph 1035.8mb 24f
5:18am 7 10 mph 1035.7mb 25f
5:12am 6 10 mph 1035.6mb 25f
5:06am 8 11 mph 1035.3mb 25f
5:00am 7 10 mph 1035.2mb 25f
4:54am 6 10 mph 1035.1mb 25f
4:48am 5 8 mph 1035.1mb 25f
4:42am 6 8 mph 1035.1mb 25f
4:36am 6 8 mph 1035.1mb 25f
4:30am 7 9 mph 1034.8mb 25f
4:24am 6 8 mph 1034.7mb 25f
4:18am 7 10 mph 1034.8mb 26f
4:12am 7 10 mph 1034.6mb 26f
4:06am 7 9 mph 1034.6mb 26f
4:00am 8 11 mph 1034.4mb 26f
3:54am 7 13 mph 1034.3mb 26f
3:48am 8 11 mph 1034.2mb 26f
3:42am 8 14 mph 1034mb 26f
3:36am 9 13 mph 1033.9mb 26f
3:30am 8 11 mph 1033.8mb 26f
3:24am 6 9 mph 1033.8mb 26f
3:18am 6 10 mph 1033.7mb 26f
3:12am 8 14 mph 1033.6mb 26f
3:06am 10 15 mph 1033.4mb 27f
3:00am 9 14 mph 1033.2mb 27f
2:54am 7 13 mph 1033.2mb 27f
2:48am 7 9 mph 1033.2mb 27f
2:42am 6 8 mph 1033mb 27f
2:36am 7 9 mph 1033mb 27f
2:30am 7 9 mph 1032.9mb 27f
2:24am 7 10 mph 1032.7mb 27f
2:18am 7 11 mph 1032.6mb 27f
2:12am 8 13 mph 1032.4mb 27f
2:06am 9 13 mph 1032.3mb 28f
2:00am 7 10 mph 1032.1mb 27f
1:54am 6 7 mph 1032mb 28f
1:48am 6 9 mph 1031.9mb 28f
1:42am 6 7 mph 1031.7mb 28f
1:36am 6 10 mph 1031.4mb 28f
1:30am 7 11 mph 1031.4mb 28f
1:24am 8 11 mph 1031.3mb 28f
1:18am 8 11 mph 1031mb 28f
1:12am 7 9 mph 1031mb 28f
1:06am 8 11 mph 1031mb 28f
1:00am 9 11 mph 1030.8mb 28f
12:54am 8 11 mph 1030.6mb 28f
12:48am 10 14 mph 1030.5mb 29f
12:42am 9 14 mph 1030.4mb 29f
12:36am 9 14 mph 1030.3mb 29f
12:30am  -  mph 1030.2mb 29f
12:24am  -  mph 1029.9mb 29f
12:18am  -  mph 1029.8mb 29f
12:12am  -  mph 1029.7mb 29f
12:06am  -  mph 1029.8mb 29f
12:00am  -  mph 1029.8mb 29f
Thu 01/12 11:54pm  -  mph 1029.6mb 30f
11:48pm  -  mph 1029.3mb 30f
11:42pm  -  mph 1029.2mb 30f
11:36pm  -  mph 1029.2mb 30f
11:30pm  -  mph 1029.1mb 30f
11:24pm  -  mph 1028.9mb 30f
11:18pm  -  mph 1028.8mb 30f
11:12pm  -  mph 1028.7mb 30f
11:06pm  -  mph 1028.4mb 30f
11:00pm  -  mph 1028.5mb 31f
10:54pm  -  mph 1028.4mb 31f
10:48pm 9 14 mph 1028.3mb 31f
10:42pm 8 10 mph 1028.2mb 31f
10:36pm 5 9 mph 1028.1mb 31f
10:30pm 5 10 mph 1028mb 31f
10:24pm 7 10 mph 1028mb 31f
10:18pm 6 9 mph 1028mb 31f
10:12pm 10 13 mph 1028mb 32f
10:06pm 8 10 mph 1027.9mb 31f
10:00pm 6 13 mph 1028mb 31f
9:54pm 7 9 mph 1028mb 32f
9:48pm 8 10 mph 1028.1mb 32f
9:42pm 6 8 mph 1028.2mb 32f
9:36pm 6 11 mph 1027.9mb 32f
9:30pm 8 10 mph 1027.7mb 32f
9:24pm 7 11 mph 1027.6mb 32f
9:18pm 7 9 mph 1027.6mb 32f
9:12pm 7 10 mph 1027.5mb 31f
9:06pm 7 9 mph 1027.3mb 31f
9:00pm  -  mph 1027.1mb 31f
8:54pm  -  mph 1027.1mb 31f
8:48pm  -  mph 1027.2mb 31f
8:42pm  -  mph 1027.3mb 31f
8:36pm  -  mph 1027.1mb 31f
8:30pm  -  mph 1026.8mb 31f
8:24pm  -  mph 1026.6mb 31f
8:18pm 8 11 mph 1026.5mb 31f
8:12pm 6 11 mph 1026.4mb 31f
8:06pm 7 14 mph 1026.3mb 31f
8:00pm 10 14 mph 1026mb 31f
7:54pm 11 17 mph 1026mb 31f
7:48pm 14 20 mph 1025.9mb 31f
7:42pm 11 17 mph 1025.8mb 31f
7:36pm 14 18 mph 1025.7mb 31f
7:30pm 10 16 mph 1025.6mb 32f
7:24pm 14 21 mph 1025.5mb 32f
7:18pm  -  mph 1025.3mb 32f
7:12pm  -  mph 1025.2mb 32f
7:06pm  -  mph 1025mb 32f
7:00pm  -  mph 1024.9mb 32f
6:54pm  -  mph 1024.7mb 32f
6:48pm 15 21 mph 1024.6mb 33f
6:42pm 17 21 mph 1024.4mb 33f
6:36pm 16 22 mph 1024.3mb 33f
6:30pm 13 16 mph 1024.3mb 33f
6:24pm 11 14 mph 1024mb 33f
6:18pm 9 11 mph 1023.8mb 33f
6:12pm 9 15 mph 1023.4mb 33f
6:06pm 8 13 mph 1023.4mb 33f
6:00pm 11 16 mph 1023.3mb 33f
5:54pm 11 16 mph 1023.1mb 33f
5:48pm 14 17 mph 1023mb 33f
5:42pm 11 16 mph 1022.7mb 34f
5:36pm 9 14 mph 1022.5mb 34f
5:30pm 8 10 mph 1022.2mb 34f
5:24pm 9 14 mph 1022.1mb 34f
5:18pm  -  mph 1021.8mb 34f
5:12pm  -  mph 1021.7mb 34f
5:06pm  -  mph 1021.5mb 34f
5:00pm 9 14 mph 1021.3mb 34f
4:54pm 11 14 mph 1021.1mb 35f
4:48pm  -  mph 1020.9mb 35f
4:42pm  -  mph 1020.7mb 35f
4:36pm  -  mph 1020.5mb 35f
4:30pm  -  mph 1020.4mb 35f
4:24pm  -  mph 1020.3mb 35f
4:18pm 10 15 mph 1020.2mb 35f